createdAt,value
2023-05-05T00:00:02.511Z,649.5385
2023-05-05T00:01:03.332Z,647.4615
2023-05-05T00:02:04.914Z,645.7692
2023-05-05T00:03:06.764Z,645.7692
2023-05-05T00:04:08.218Z,645.3077
2023-05-05T00:05:09.886Z,648.3846
2023-05-05T00:06:11.593Z,646.6923
2023-05-05T00:07:13.147Z,645.7692
2023-05-05T00:08:14.794Z,645.0000
2023-05-05T00:09:16.424Z,641.2308
2023-05-05T00:10:18.090Z,638.9231
2023-05-05T00:11:19.760Z,640.0769
2023-05-05T00:12:21.331Z,640.8461
2023-05-05T00:13:23.048Z,643.0769
2023-05-05T00:14:24.659Z,645.6154
2023-05-05T00:15:26.307Z,645.8461
2023-05-05T00:16:28.081Z,645.6154
2023-05-05T00:17:29.610Z,648.0000
2023-05-05T00:18:31.276Z,648.6923
2023-05-05T00:19:32.893Z,646.0769
2023-05-05T00:20:34.583Z,645.3077
2023-05-05T00:21:36.244Z,645.1539
2023-05-05T00:22:37.862Z,645.7692
2023-05-05T00:23:39.472Z,649.1539
2023-05-05T00:24:41.217Z,652.2308
2023-05-05T00:25:42.754Z,652.2308
2023-05-05T00:26:44.490Z,653.3846
2023-05-05T00:27:46.152Z,655.8461
2023-05-05T00:28:47.770Z,657.9231
2023-05-05T00:29:49.331Z,655.9231
2023-05-05T00:30:51.070Z,656.1539
2023-05-05T00:31:52.665Z,660.1539
2023-05-05T00:32:54.467Z,661.7692
2023-05-05T00:33:55.908Z,660.9231
2023-05-05T00:34:57.673Z,658.6923
2023-05-05T00:35:59.281Z,658.1539
2023-05-05T00:37:00.929Z,657.0769
2023-05-05T00:38:02.482Z,657.2308
2023-05-05T00:39:04.207Z,660.4615
2023-05-05T00:40:05.897Z,660.5385
2023-05-05T00:41:07.485Z,659.2308
2023-05-05T00:42:10.493Z,659.2308
2023-05-05T00:43:10.692Z,658.7692
2023-05-05T00:44:12.394Z,658.3077
2023-05-05T00:45:15.004Z,657.3077
2023-05-05T00:46:15.704Z,658.2308
2023-05-05T00:47:17.389Z,658.7692
2023-05-05T00:48:19.078Z,659.0000
2023-05-05T00:49:20.666Z,659.3077
2023-05-05T00:50:22.255Z,657.3846
2023-05-05T00:51:23.991Z,656.9231
2023-05-05T00:52:25.601Z,655.6154
2023-05-05T00:53:27.226Z,655.2308
2023-05-05T00:54:28.824Z,655.4615
2023-05-05T00:55:30.504Z,656.5385
2023-05-05T00:56:32.121Z,656.3077
2023-05-05T00:57:33.830Z,656.7692
2023-05-05T00:58:35.355Z,655.0000
2023-05-05T00:59:37.082Z,654.8461
2023-05-05T01:00:38.679Z,657.2308
2023-05-05T01:01:41.491Z,659.8461
2023-05-05T01:02:42.458Z,660.1539
2023-05-05T01:03:43.845Z,656.1539
2023-05-05T01:04:46.139Z,653.5385
2023-05-05T01:05:46.883Z,654.0000
2023-05-05T01:06:48.494Z,654.2308
2023-05-05T01:07:50.130Z,654.6154
2023-05-05T01:08:51.794Z,652.6154
2023-05-05T01:10:04.201Z,651.2308
2023-05-05T01:10:55.089Z,652.7692
2023-05-05T01:11:56.780Z,651.6154
2023-05-05T01:12:58.436Z,654.7692
2023-05-05T01:13:59.967Z,659.8461
2023-05-05T01:15:01.639Z,660.8461
2023-05-05T01:16:03.337Z,659.6923
2023-05-05T01:17:04.951Z,660.5385
2023-05-05T01:18:06.764Z,658.3077
2023-05-05T01:19:08.200Z,656.4615
2023-05-05T01:20:10.013Z,655.1539
2023-05-05T01:21:11.495Z,655.0000
2023-05-05T01:22:13.129Z,654.5385
2023-05-05T01:23:14.786Z,652.9231
2023-05-05T01:24:16.386Z,651.6154
2023-05-05T01:25:18.073Z,651.3077
2023-05-05T01:26:19.691Z,652.0769
2023-05-05T01:27:21.367Z,654.0000
2023-05-05T01:28:23.021Z,650.8461
2023-05-05T01:29:24.643Z,650.0000
2023-05-05T01:30:26.257Z,650.6154
2023-05-05T01:31:28.032Z,652.4615
2023-05-05T01:32:29.635Z,653.0769
2023-05-05T01:33:31.556Z,654.6923
2023-05-05T01:34:32.892Z,654.5385
2023-05-05T01:35:34.515Z,652.3077
2023-05-05T01:36:36.150Z,653.2308
2023-05-05T01:37:37.868Z,653.6154
2023-05-05T01:38:39.498Z,655.0000
2023-05-05T01:39:41.107Z,655.6154
2023-05-05T01:40:42.766Z,656.4615
2023-05-05T01:41:44.439Z,656.6154
2023-05-05T01:42:46.063Z,656.6923
2023-05-05T01:43:47.739Z,657.3846
2023-05-05T01:44:49.241Z,653.7692
2023-05-05T01:45:50.980Z,652.5385
2023-05-05T01:46:52.560Z,652.0769
2023-05-05T01:47:54.273Z,650.7692
2023-05-05T01:48:55.836Z,650.6923
2023-05-05T01:49:57.605Z,649.0000
2023-05-05T01:50:59.158Z,651.4615
2023-05-05T01:52:00.870Z,651.3077
2023-05-05T01:53:02.473Z,653.7692
2023-05-05T01:54:04.958Z,653.4615
2023-05-05T01:55:05.800Z,654.4615
2023-05-05T01:56:07.365Z,653.9231
2023-05-05T01:57:09.010Z,655.7692
2023-05-05T01:58:10.781Z,656.1539
2023-05-05T01:59:12.334Z,655.6923
2023-05-05T02:00:13.997Z,647.9231
2023-05-05T02:01:15.604Z,644.9231
2023-05-05T02:02:17.266Z,646.4615
2023-05-05T02:03:18.969Z,649.5385
2023-05-05T02:04:20.665Z,651.4615
2023-05-05T02:05:22.198Z,651.4615
2023-05-05T02:06:23.820Z,651.2308
2023-05-05T02:07:25.429Z,654.0000
2023-05-05T02:08:27.185Z,651.7692
2023-05-05T02:09:28.754Z,650.3846
2023-05-05T02:10:30.415Z,650.3077
2023-05-05T02:11:32.004Z,650.6923
2023-05-05T02:12:33.719Z,650.9231
2023-05-05T02:13:35.368Z,649.3846
2023-05-05T02:14:36.997Z,649.1539
2023-05-05T02:15:38.678Z,649.2308
2023-05-05T02:16:40.284Z,647.8461
2023-05-05T02:17:41.939Z,647.4615
2023-05-05T02:18:43.565Z,645.6154
2023-05-05T02:19:45.250Z,642.9231
2023-05-05T02:20:46.860Z,642.6154
2023-05-05T02:21:48.561Z,641.5385
2023-05-05T02:22:50.131Z,642.3846
2023-05-05T02:23:51.922Z,641.7692
2023-05-05T02:24:53.467Z,642.4615
2023-05-05T02:25:55.018Z,640.7692
2023-05-05T02:26:56.816Z,639.0000
2023-05-05T02:27:58.319Z,641.6154
2023-05-05T02:29:00.031Z,642.6154
2023-05-05T02:30:01.654Z,641.2308
2023-05-05T02:31:03.294Z,638.7692
2023-05-05T02:32:04.986Z,639.4615
2023-05-05T02:33:06.715Z,640.6154
2023-05-05T02:34:08.226Z,638.0000
2023-05-05T02:35:09.896Z,637.2308
2023-05-05T02:36:11.536Z,638.6923
2023-05-05T02:37:13.214Z,639.6923
2023-05-05T02:38:14.783Z,641.3077
2023-05-05T02:39:16.426Z,640.0000
2023-05-05T02:40:18.082Z,638.3077
2023-05-05T02:41:19.690Z,640.8461
2023-05-05T02:42:21.923Z,640.0769
2023-05-05T02:43:23.124Z,642.3846
2023-05-05T02:44:24.626Z,640.3846
2023-05-05T02:45:26.855Z,640.3846
2023-05-05T02:46:27.963Z,640.7692
2023-05-05T02:47:29.628Z,638.6154
2023-05-05T02:48:31.148Z,637.4615
2023-05-05T02:49:32.885Z,637.6154
2023-05-05T02:50:34.498Z,637.1539
2023-05-05T02:51:36.232Z,635.5385
2023-05-05T02:52:37.824Z,634.9231
2023-05-05T02:53:39.443Z,637.1539
2023-05-05T02:54:41.436Z,638.8461
2023-05-05T02:55:42.753Z,643.3846
2023-05-05T02:56:44.359Z,639.1539
2023-05-05T02:57:46.001Z,637.5385
2023-05-05T02:58:47.620Z,639.4615
2023-05-05T02:59:49.339Z,638.3846
2023-05-05T03:00:50.953Z,637.5385
2023-05-05T03:01:52.736Z,639.0000
2023-05-05T03:02:54.339Z,642.0000
2023-05-05T03:03:55.976Z,644.7692
2023-05-05T03:04:57.556Z,644.5385
2023-05-05T03:05:59.208Z,644.3846
2023-05-05T03:07:00.767Z,644.0000
2023-05-05T03:08:02.533Z,642.6923
2023-05-05T03:09:04.171Z,642.3077
2023-05-05T03:10:06.203Z,642.4615
2023-05-05T03:11:07.386Z,642.2308
2023-05-05T03:12:09.096Z,644.5385
2023-05-05T03:13:10.858Z,645.8461
2023-05-05T03:14:12.369Z,645.0000
2023-05-05T03:15:14.071Z,645.8461
2023-05-05T03:16:15.780Z,646.9231
2023-05-05T03:17:17.310Z,647.5385
2023-05-05T03:18:18.988Z,648.0769
2023-05-05T03:19:20.617Z,646.7692
2023-05-05T03:20:22.302Z,646.3846
2023-05-05T03:21:23.963Z,648.3077
2023-05-05T03:22:25.536Z,650.6154
2023-05-05T03:23:27.175Z,649.0769
2023-05-05T03:24:28.850Z,650.1539
2023-05-05T03:25:30.557Z,649.5385
2023-05-05T03:26:32.487Z,645.9231
2023-05-05T03:27:33.796Z,643.0000
2023-05-05T03:28:35.363Z,641.2308
2023-05-05T03:29:37.096Z,639.5385
2023-05-05T03:30:38.781Z,641.5385
2023-05-05T03:31:41.102Z,642.8461
2023-05-05T03:32:42.082Z,643.5385
2023-05-05T03:33:43.649Z,645.0000
2023-05-05T03:34:45.245Z,646.1539
2023-05-05T03:35:46.976Z,645.9231
2023-05-05T03:36:48.582Z,643.8461
2023-05-05T03:37:50.971Z,642.4615
2023-05-05T03:38:51.816Z,636.3846
2023-05-05T03:39:53.605Z,634.5385
2023-05-05T03:40:55.195Z,639.3846
2023-05-05T03:41:56.853Z,640.9231
2023-05-05T03:42:58.434Z,639.6154
2023-05-05T03:44:00.185Z,639.6154
2023-05-05T03:45:01.733Z,639.3846
2023-05-05T03:46:03.469Z,638.1539
2023-05-05T03:47:06.000Z,637.8461
2023-05-05T03:48:06.752Z,636.8461
2023-05-05T03:49:08.311Z,635.0000
2023-05-05T03:50:10.170Z,633.7692
2023-05-05T03:51:11.636Z,632.3077
2023-05-05T03:52:15.093Z,635.4615
2023-05-05T03:53:14.976Z,641.0000
2023-05-05T03:54:16.552Z,641.8461
2023-05-05T03:55:18.186Z,644.7692
2023-05-05T03:56:19.873Z,645.1539
2023-05-05T03:57:21.468Z,644.5385
2023-05-05T03:58:24.011Z,644.1539
2023-05-05T03:59:24.741Z,645.3077
2023-05-05T04:00:26.464Z,644.0769
2023-05-05T04:01:28.859Z,645.0769
2023-05-05T04:02:29.855Z,644.2308
2023-05-05T04:03:31.651Z,643.4615
2023-05-05T04:04:33.154Z,646.7692
2023-05-05T04:05:34.653Z,647.4615
2023-05-05T04:06:36.293Z,645.6154
2023-05-05T04:07:37.927Z,646.8461
2023-05-05T04:08:40.068Z,648.1539
2023-05-05T04:09:41.959Z,648.4615
2023-05-05T04:10:42.907Z,644.3846
2023-05-05T04:11:44.545Z,641.9231
2023-05-05T04:12:46.356Z,638.0769
2023-05-05T04:13:47.871Z,636.7692
2023-05-05T04:14:49.537Z,638.9231
2023-05-05T04:15:51.104Z,639.5385
2023-05-05T04:16:52.716Z,640.6154
2023-05-05T04:17:55.142Z,640.5385
2023-05-05T04:18:56.061Z,639.0000
2023-05-05T04:19:57.720Z,635.3077
2023-05-05T04:20:59.306Z,633.7692
2023-05-05T04:22:00.971Z,634.6154
2023-05-05T04:23:02.643Z,636.6923
2023-05-05T04:24:04.278Z,638.3846
2023-05-05T04:25:05.964Z,639.6154
2023-05-05T04:26:07.514Z,637.8461
2023-05-05T04:27:09.192Z,636.0000
2023-05-05T04:28:10.852Z,636.2308
2023-05-05T04:29:12.523Z,636.0769
2023-05-05T04:30:14.143Z,637.7692
2023-05-05T04:31:15.753Z,637.6154
2023-05-05T04:32:17.296Z,636.0000
2023-05-05T04:33:19.018Z,637.1539
2023-05-05T04:34:20.640Z,635.0000
2023-05-05T04:35:22.300Z,635.9231
2023-05-05T04:36:23.936Z,636.7692
2023-05-05T04:37:25.520Z,639.0000
2023-05-05T04:38:27.301Z,637.6923
2023-05-05T04:39:29.535Z,637.0000
2023-05-05T04:40:30.481Z,636.0769
2023-05-05T04:41:32.049Z,634.9231
2023-05-05T04:42:33.701Z,634.0769
2023-05-05T04:43:35.400Z,634.3846
2023-05-05T04:44:37.474Z,635.3846
2023-05-05T04:45:38.705Z,636.6154
2023-05-05T04:46:40.326Z,636.6923
2023-05-05T04:47:42.045Z,634.9231
2023-05-05T04:48:43.590Z,631.7692
2023-05-05T04:49:45.476Z,631.9231
2023-05-05T04:50:46.971Z,632.0769
2023-05-05T04:51:48.547Z,631.2308
2023-05-05T04:52:51.392Z,629.6154
2023-05-05T04:53:53.091Z,631.1539
2023-05-05T04:54:53.632Z,631.3077
2023-05-05T04:55:55.286Z,632.2308
2023-05-05T04:56:56.918Z,630.3846
2023-05-05T04:57:58.584Z,627.6923
2023-05-05T04:59:00.206Z,626.7692
2023-05-05T05:00:01.893Z,626.5385
2023-05-05T05:01:03.525Z,627.2308
2023-05-05T05:02:05.246Z,627.6154
2023-05-05T05:03:06.854Z,626.0000
2023-05-05T05:04:08.422Z,625.1539
2023-05-05T05:05:10.094Z,624.7692
2023-05-05T05:06:11.723Z,625.5385
2023-05-05T05:07:13.336Z,626.6923
2023-05-05T05:08:15.087Z,628.4615
2023-05-05T05:09:16.575Z,630.1539
2023-05-05T05:10:18.342Z,631.6923
2023-05-05T05:11:19.974Z,631.7692
2023-05-05T05:12:21.563Z,631.2308
2023-05-05T05:13:23.269Z,632.1539
2023-05-05T05:14:24.898Z,633.9231
2023-05-05T05:15:26.463Z,634.7692
2023-05-05T05:16:28.351Z,637.3846
2023-05-05T05:17:29.858Z,638.0769
2023-05-05T05:18:31.521Z,640.0000
2023-05-05T05:19:34.069Z,639.4615
2023-05-05T05:20:35.092Z,637.0769
2023-05-05T05:21:36.425Z,636.1539
2023-05-05T05:22:38.009Z,635.2308
2023-05-05T05:23:39.658Z,635.3077
2023-05-05T05:24:41.363Z,638.3077
2023-05-05T05:25:43.897Z,638.9231
2023-05-05T05:26:44.690Z,637.0769
2023-05-05T05:27:50.136Z,635.6923
2023-05-05T05:28:47.856Z,634.8461
2023-05-05T05:29:49.558Z,634.7692
2023-05-05T05:30:51.228Z,637.0000
2023-05-05T05:31:52.803Z,639.6923
2023-05-05T05:32:54.544Z,639.3846
2023-05-05T05:33:56.191Z,639.9231
2023-05-05T05:34:57.678Z,639.0769
2023-05-05T05:35:59.470Z,635.5385
2023-05-05T05:37:01.076Z,636.3077
2023-05-05T05:38:02.700Z,636.5385
2023-05-05T05:39:04.256Z,638.1539
2023-05-05T05:40:06.032Z,640.2308
2023-05-05T05:41:07.535Z,641.5385
2023-05-05T05:42:10.507Z,637.6154
2023-05-05T05:43:10.923Z,637.2308
2023-05-05T05:44:12.522Z,638.8461
2023-05-05T05:45:14.094Z,639.3077
2023-05-05T05:46:15.886Z,639.8461
2023-05-05T05:47:17.500Z,640.3846
2023-05-05T05:48:20.104Z,641.9231
2023-05-05T05:49:20.598Z,641.0000
2023-05-05T05:50:22.673Z,640.0769
2023-05-05T05:51:24.267Z,638.2308
2023-05-05T05:52:25.978Z,638.7692
2023-05-05T05:53:28.665Z,638.1539
2023-05-05T05:54:29.666Z,639.6923
2023-05-05T05:55:30.492Z,636.0000
2023-05-05T05:56:32.215Z,634.6923
2023-05-05T05:57:34.167Z,632.5385
2023-05-05T05:58:35.413Z,630.9231
2023-05-05T05:59:37.121Z,629.4615
2023-05-05T06:00:38.950Z,628.6154
2023-05-05T06:01:40.445Z,629.5385
2023-05-05T06:02:42.296Z,630.6154
2023-05-05T06:03:43.712Z,631.0000
2023-05-05T06:04:45.285Z,633.6923
2023-05-05T06:05:46.886Z,634.6154
2023-05-05T06:06:48.675Z,635.0000
2023-05-05T06:07:50.229Z,636.8461
2023-05-05T06:08:51.877Z,635.6923
2023-05-05T06:09:53.503Z,635.1539
2023-05-05T06:10:55.272Z,635.4615
2023-05-05T06:11:56.831Z,635.6923
2023-05-05T06:12:58.578Z,635.3077
2023-05-05T06:14:00.071Z,633.0000
2023-05-05T06:15:01.727Z,629.7692
2023-05-05T06:16:03.395Z,628.8461
2023-05-05T06:17:05.085Z,627.0000
2023-05-05T06:18:06.702Z,626.3077
2023-05-05T06:19:08.349Z,625.0769
2023-05-05T06:20:10.058Z,625.7692
2023-05-05T06:21:11.630Z,626.1539
2023-05-05T06:22:13.348Z,625.5385
2023-05-05T06:23:14.886Z,624.7692
2023-05-05T06:24:16.474Z,624.7692
2023-05-05T06:25:18.180Z,625.3077
2023-05-05T06:26:19.818Z,622.4615
2023-05-05T06:27:21.446Z,621.5385
2023-05-05T06:28:23.612Z,621.9231
2023-05-05T06:29:24.694Z,620.1539
2023-05-05T06:30:26.413Z,619.3846
2023-05-05T06:31:27.996Z,620.3846
2023-05-05T06:32:30.164Z,620.6154
2023-05-05T06:33:31.328Z,622.7692
2023-05-05T06:34:32.970Z,622.4615
2023-05-05T06:35:34.596Z,622.1539
2023-05-05T06:36:36.306Z,622.7692
2023-05-05T06:37:37.868Z,622.1539
2023-05-05T06:38:39.571Z,620.3077
2023-05-05T06:39:41.135Z,620.9231
2023-05-05T06:40:42.841Z,620.2308
2023-05-05T06:41:44.478Z,619.0000
2023-05-05T06:42:46.160Z,617.2308
2023-05-05T06:43:48.097Z,615.7692
2023-05-05T06:44:49.469Z,613.7692
2023-05-05T06:45:50.950Z,613.1539
2023-05-05T06:46:52.731Z,611.6154
2023-05-05T06:47:54.295Z,612.2308
2023-05-05T06:48:56.118Z,615.1539
2023-05-05T06:49:57.502Z,610.8461
2023-05-05T06:50:59.201Z,608.2308
2023-05-05T06:52:00.799Z,608.6154
2023-05-05T06:53:02.481Z,608.8461
2023-05-05T06:54:04.152Z,610.5385
2023-05-05T06:55:05.742Z,610.7692
2023-05-05T06:56:07.405Z,611.0769
2023-05-05T06:57:09.054Z,608.4615
2023-05-05T06:58:11.600Z,610.2308
2023-05-05T06:59:12.308Z,609.5385
2023-05-05T07:00:13.898Z,609.1539
2023-05-05T07:01:15.720Z,608.8461
2023-05-05T07:02:17.211Z,612.3077
2023-05-05T07:03:18.914Z,612.0000
2023-05-05T07:04:20.561Z,601.8461
2023-05-05T07:05:22.244Z,599.9231
2023-05-05T07:06:23.765Z,602.6154
2023-05-05T07:07:25.451Z,605.7692
2023-05-05T07:08:27.066Z,606.9231
2023-05-05T07:09:28.743Z,607.2308
2023-05-05T07:10:30.356Z,608.9231
2023-05-05T07:11:31.956Z,610.2308
2023-05-05T07:12:33.668Z,607.2308
2023-05-05T07:13:35.249Z,605.4615
2023-05-05T07:14:37.019Z,605.6923
2023-05-05T07:15:38.684Z,603.4615
2023-05-05T07:16:40.337Z,601.0000
2023-05-05T07:17:41.879Z,599.7692
2023-05-05T07:18:43.586Z,599.0769
2023-05-05T07:19:45.248Z,599.2308
2023-05-05T07:20:46.965Z,599.7692
2023-05-05T07:21:48.437Z,594.4615
2023-05-05T07:22:50.107Z,593.0000
2023-05-05T07:23:52.091Z,591.7692
2023-05-05T07:24:53.462Z,590.8461
2023-05-05T07:25:54.998Z,589.6154
2023-05-05T07:26:56.644Z,587.3846
2023-05-05T07:27:58.272Z,585.9231
2023-05-05T07:29:00.008Z,582.6154
2023-05-05T07:30:02.073Z,584.1539
2023-05-05T07:31:03.263Z,590.1539
2023-05-05T07:32:04.921Z,591.3077
2023-05-05T07:33:06.554Z,584.3077
2023-05-05T07:34:08.519Z,581.6923
2023-05-05T07:35:09.789Z,581.8461
2023-05-05T07:36:11.519Z,582.6923
2023-05-05T07:37:13.104Z,582.2308
2023-05-05T07:38:15.602Z,583.6154
2023-05-05T07:39:17.127Z,585.1539
2023-05-05T07:40:18.095Z,586.1539
2023-05-05T07:41:19.651Z,587.5385
2023-05-05T07:42:21.422Z,588.0769
2023-05-05T07:43:23.015Z,587.3846
2023-05-05T07:44:24.658Z,586.1539
2023-05-05T07:45:26.268Z,583.7692
2023-05-05T07:46:28.016Z,580.0769
2023-05-05T07:47:29.587Z,576.6154
2023-05-05T07:48:31.193Z,571.0000
2023-05-05T07:49:32.811Z,570.6154
2023-05-05T07:50:34.505Z,570.1539
2023-05-05T07:51:36.051Z,569.8461
2023-05-05T07:52:45.313Z,571.0000
2023-05-05T07:53:39.304Z,570.2308
2023-05-05T07:54:40.960Z,570.7692
2023-05-05T07:55:43.033Z,575.3846
2023-05-05T07:56:44.569Z,580.7692
2023-05-05T07:57:45.963Z,577.4615
2023-05-05T07:58:48.488Z,572.6154
2023-05-05T07:59:49.226Z,566.0000
2023-05-05T08:00:50.999Z,563.7692
2023-05-05T08:01:54.791Z,566.0000
2023-05-05T08:02:54.322Z,570.3846
2023-05-05T08:03:55.995Z,570.3846
2023-05-05T08:04:57.596Z,568.1539
2023-05-05T08:05:59.305Z,567.6923
2023-05-05T08:07:00.877Z,569.2308
2023-05-05T08:08:02.567Z,568.0769
2023-05-05T08:09:04.159Z,567.3846
2023-05-05T08:10:05.832Z,566.8461
2023-05-05T08:11:07.479Z,564.6154
2023-05-05T08:12:09.896Z,564.8461
2023-05-05T08:13:10.632Z,563.3077
2023-05-05T08:14:12.278Z,564.3077
2023-05-05T08:15:13.924Z,560.4615
2023-05-05T08:16:15.583Z,557.6154
2023-05-05T08:17:18.144Z,558.8461
2023-05-05T08:18:18.861Z,559.6923
2023-05-05T08:19:28.600Z,559.9231
2023-05-05T08:20:22.148Z,561.1539
2023-05-05T08:21:23.793Z,565.5385
2023-05-05T08:22:25.421Z,565.0769
2023-05-05T08:23:27.048Z,564.0000
2023-05-05T08:24:28.640Z,564.0000
2023-05-05T08:25:30.283Z,564.0000
2023-05-05T08:26:31.933Z,565.2308
2023-05-05T08:27:33.625Z,564.9231
2023-05-05T08:28:35.307Z,564.6154
2023-05-05T08:29:36.827Z,559.8461
2023-05-05T08:30:38.434Z,559.4615
2023-05-05T08:31:40.320Z,559.5385
2023-05-05T08:32:41.871Z,559.3077
2023-05-05T08:33:43.450Z,557.8461
2023-05-05T08:34:45.014Z,554.7692
2023-05-05T08:35:46.706Z,555.6923
2023-05-05T08:36:48.360Z,556.3077
2023-05-05T08:37:49.964Z,556.1539
2023-05-05T08:38:51.593Z,555.5385
2023-05-05T08:39:53.202Z,556.6154
2023-05-05T08:40:54.953Z,558.8461
2023-05-05T08:41:56.590Z,562.7692
2023-05-05T08:42:58.230Z,564.5385
2023-05-05T08:43:59.779Z,559.3077
2023-05-05T08:45:01.425Z,559.8461
2023-05-05T08:46:03.163Z,560.9231
2023-05-05T08:47:04.864Z,559.3077
2023-05-05T08:48:06.460Z,560.3846
2023-05-05T08:49:08.087Z,560.5385
2023-05-05T08:50:09.681Z,561.2308
2023-05-05T08:51:11.256Z,560.5385
2023-05-05T08:52:13.024Z,560.0769
2023-05-05T08:53:14.600Z,559.0000
2023-05-05T08:54:16.222Z,559.4615
2023-05-05T08:55:17.942Z,556.8461
2023-05-05T08:56:19.467Z,554.3846
2023-05-05T08:57:21.185Z,556.7692
2023-05-05T08:58:23.015Z,558.6154
2023-05-05T08:59:24.403Z,558.5385
2023-05-05T09:00:26.095Z,559.5385
2023-05-05T09:01:27.710Z,559.5385
2023-05-05T09:02:29.474Z,559.3077
2023-05-05T09:03:31.065Z,562.0000
2023-05-05T09:04:32.656Z,557.5385
2023-05-05T09:05:34.253Z,560.8461
2023-05-05T09:06:35.924Z,562.0769
2023-05-05T09:07:37.554Z,562.8461
2023-05-05T09:08:39.233Z,563.2308
2023-05-05T09:09:40.818Z,562.1539
2023-05-05T09:10:42.495Z,564.7692
2023-05-05T09:11:44.147Z,565.7692
2023-05-05T09:12:45.818Z,567.0769
2023-05-05T09:13:48.001Z,569.6923
2023-05-05T09:14:49.109Z,568.3077
2023-05-05T09:15:50.685Z,567.8461
2023-05-05T09:16:52.265Z,569.5385
2023-05-05T09:17:53.982Z,565.3846
2023-05-05T09:18:55.673Z,562.5385
2023-05-05T09:19:57.361Z,564.6154
2023-05-05T09:20:59.573Z,561.6154
2023-05-05T09:22:00.550Z,561.7692
2023-05-05T09:23:02.204Z,561.3846
2023-05-05T09:24:08.216Z,561.4615
2023-05-05T09:25:05.682Z,561.2308
2023-05-05T09:26:07.072Z,559.5385
2023-05-05T09:27:08.785Z,558.6923
2023-05-05T09:28:10.428Z,560.7692
2023-05-05T09:29:12.079Z,563.3846
2023-05-05T09:30:13.719Z,565.2308
2023-05-05T09:31:15.445Z,565.3077
2023-05-05T09:32:16.992Z,563.5385
2023-05-05T09:33:18.623Z,562.9231
2023-05-05T09:34:20.342Z,562.6154
2023-05-05T09:35:22.039Z,558.0769
2023-05-05T09:36:24.233Z,556.4615
2023-05-05T09:37:25.216Z,556.3846
2023-05-05T09:38:26.789Z,556.0000
2023-05-05T09:39:28.548Z,555.2308
2023-05-05T09:40:30.138Z,551.3846
2023-05-05T09:41:31.731Z,551.8461
2023-05-05T09:42:33.407Z,551.7692
2023-05-05T09:43:35.096Z,551.6923
2023-05-05T09:44:36.736Z,550.7692
2023-05-05T09:45:38.722Z,548.9231
2023-05-05T09:46:40.049Z,548.0000
2023-05-05T09:47:41.612Z,549.3077
2023-05-05T09:48:43.271Z,554.6923
2023-05-05T09:49:45.688Z,566.7692
2023-05-05T09:50:46.667Z,554.8461
2023-05-05T09:51:49.010Z,552.4615
2023-05-05T09:52:49.807Z,552.9231
2023-05-05T09:53:51.537Z,562.6154
2023-05-05T09:54:53.117Z,560.0000
2023-05-05T09:55:54.835Z,551.3846
2023-05-05T09:56:56.585Z,552.8461
2023-05-05T09:57:58.084Z,553.0000
2023-05-05T09:58:59.678Z,548.9231
2023-05-05T10:00:01.366Z,547.5385
2023-05-05T10:01:03.036Z,550.0000
2023-05-05T10:02:04.709Z,547.9231
2023-05-05T10:03:06.330Z,546.4615
2023-05-05T10:04:07.881Z,545.9231
2023-05-05T10:05:09.551Z,546.3846
2023-05-05T10:06:11.241Z,547.9231
2023-05-05T10:07:12.808Z,555.0000
2023-05-05T10:08:14.454Z,552.8461
2023-05-05T10:09:16.127Z,557.2308
2023-05-05T10:10:17.786Z,552.6154
2023-05-05T10:11:19.393Z,547.9231
2023-05-05T10:12:20.974Z,548.1539
2023-05-05T10:13:22.741Z,546.0769
2023-05-05T10:14:24.260Z,548.7692
2023-05-05T10:15:25.989Z,548.7692
2023-05-05T10:16:29.077Z,547.2308
2023-05-05T10:17:29.352Z,547.2308
2023-05-05T10:18:30.883Z,550.0769
2023-05-05T10:19:32.507Z,548.5385
2023-05-05T10:20:34.260Z,551.8461
2023-05-05T10:21:36.297Z,550.0769
2023-05-05T10:22:37.497Z,550.1539
2023-05-05T10:23:39.090Z,550.0000
2023-05-05T10:24:40.696Z,548.7692
2023-05-05T10:25:42.375Z,549.0769
2023-05-05T10:26:44.089Z,550.7692
2023-05-05T10:27:45.659Z,550.3846
2023-05-05T10:28:47.251Z,546.1539
2023-05-05T10:29:48.949Z,545.2308
2023-05-05T10:30:50.604Z,543.6154
2023-05-05T10:31:54.380Z,547.3846
2023-05-05T10:33:04.034Z,552.7692
2023-05-05T10:33:55.730Z,544.7692
2023-05-05T10:34:57.163Z,542.0769
2023-05-05T10:35:58.874Z,543.7692
2023-05-05T10:37:00.376Z,546.2308
2023-05-05T10:38:02.178Z,545.6154
2023-05-05T10:39:03.612Z,556.3077
2023-05-05T10:40:05.464Z,543.1539
2023-05-05T10:41:06.958Z,540.3846
2023-05-05T10:42:08.622Z,539.1539
2023-05-05T10:43:10.263Z,538.4615
2023-05-05T10:44:11.842Z,539.5385
2023-05-05T10:45:13.484Z,538.6154
2023-05-05T10:46:15.215Z,537.5385
2023-05-05T10:47:16.818Z,540.2308
2023-05-05T10:48:18.441Z,540.9231
2023-05-05T10:49:20.068Z,545.0769
2023-05-05T10:50:21.703Z,551.5385
2023-05-05T10:51:38.640Z,546.1539
2023-05-05T10:52:25.109Z,544.7500
2023-05-05T10:53:26.642Z,546.0769
2023-05-05T10:54:28.345Z,543.0000
2023-05-05T10:55:29.912Z,543.1539
2023-05-05T10:56:31.656Z,545.0769
2023-05-05T10:57:33.704Z,545.7692
2023-05-05T10:58:43.685Z,548.9231
2023-05-05T10:59:36.528Z,544.0000
2023-05-05T11:00:38.240Z,544.2308
2023-05-05T11:01:39.863Z,539.6923
2023-05-05T11:02:41.712Z,544.8461
2023-05-05T11:03:43.040Z,544.4615
2023-05-05T11:04:44.670Z,542.7692
2023-05-05T11:05:46.354Z,541.0000
2023-05-05T11:06:48.041Z,539.2308
2023-05-05T11:07:50.194Z,536.3846
2023-05-05T11:08:51.247Z,538.0000
2023-05-05T11:09:52.927Z,538.9231
2023-05-05T11:10:55.116Z,538.3077
2023-05-05T11:11:56.315Z,549.3077
2023-05-05T11:12:57.999Z,540.7692
2023-05-05T11:13:59.544Z,541.6923
2023-05-05T11:15:01.138Z,540.3077
2023-05-05T11:16:02.749Z,541.1539
2023-05-05T11:17:04.468Z,540.2308
2023-05-05T11:18:07.845Z,543.3077
2023-05-05T11:19:07.762Z,544.2308
2023-05-05T11:20:09.650Z,543.3077
2023-05-05T11:21:11.062Z,541.6923
2023-05-05T11:22:13.245Z,538.3077
2023-05-05T11:23:16.607Z,536.0769
2023-05-05T11:24:16.665Z,541.5385
2023-05-05T11:25:17.617Z,544.9231
2023-05-05T11:26:19.212Z,542.0000
2023-05-05T11:27:20.952Z,547.1539
2023-05-05T11:28:22.546Z,538.1539
2023-05-05T11:29:24.182Z,538.2308
2023-05-05T11:30:25.795Z,533.9231
2023-05-05T11:31:27.521Z,534.3846
2023-05-05T11:32:29.156Z,544.5385
2023-05-05T11:33:30.857Z,535.3077
2023-05-05T11:34:32.383Z,533.2308
2023-05-05T11:35:34.107Z,533.0769
2023-05-05T11:36:35.621Z,536.5385
2023-05-05T11:37:37.725Z,533.7692
2023-05-05T11:38:39.028Z,535.1539
2023-05-05T11:39:40.639Z,534.8461
2023-05-05T11:40:42.206Z,538.2308
2023-05-05T11:41:43.866Z,538.5385
2023-05-05T11:42:45.691Z,535.0769
2023-05-05T11:43:47.196Z,548.5385
2023-05-05T11:44:48.782Z,536.9231
2023-05-05T11:45:50.438Z,531.1539
2023-05-05T11:46:52.052Z,533.2308
2023-05-05T11:47:53.780Z,537.6923
2023-05-05T11:48:55.665Z,540.2308
2023-05-05T11:49:57.081Z,543.4615
2023-05-05T11:50:58.631Z,543.1539
2023-05-05T11:52:00.297Z,543.0000
2023-05-05T11:53:02.021Z,549.0000
2023-05-05T11:54:03.700Z,547.5385
2023-05-05T11:55:05.350Z,543.2308
2023-05-05T11:56:07.013Z,541.9231
2023-05-05T11:57:08.655Z,542.3077
2023-05-05T11:58:10.393Z,543.3846
2023-05-05T11:59:11.946Z,542.8461
2023-05-05T12:00:13.564Z,543.0000
2023-05-05T12:01:15.212Z,541.2308
2023-05-05T12:02:16.968Z,540.2308
2023-05-05T12:03:18.577Z,544.0000